Time;durP1;ratioP1;P1;durP2;ratioP2;P2;SDS_P1;SDS_P2;PMS_P1;PMS_P2;Temp;Humidity;BMP_temperature;BMP_pressure;BME280_temperature;BME280_humidity;BME280_pressure;Samples;Min_cycle;Max_cycle;Signal;HPM_P1;HPM_P2
2022/11/19 00:04:34;;;;;;;7.80;4.60;;;;;;;12.11;100.00;96562.78;10253829;28;20050;-57
2022/11/19 00:09:33;;;;;;;7.57;4.60;;;;;;;12.13;100.00;96566.16;10254109;28;20034;-57
2022/11/19 00:14:33;;;;;;;4.35;2.40;;;;;;;12.16;100.00;96580.81;10253613;28;20065;-57
2022/11/19 00:19:32;;;;;;;3.97;2.10;;;;;;;12.21;100.00;96574.63;10253646;28;20109;-57
2022/11/19 00:24:31;;;;;;;3.47;2.30;;;;;;;12.34;99.01;96574.31;10252864;28;20432;-56
2022/11/19 00:29:30;;;;;;;6.55;3.13;;;;;;;12.38;99.03;96596.78;10254002;28;20061;-56
2022/11/19 00:34:29;;;;;;;4.00;2.83;;;;;;;12.44;98.45;96591.41;10253773;28;20026;-56
2022/11/19 00:39:28;;;;;;;4.78;2.58;;;;;;;12.46;97.80;96585.28;10252912;28;20113;-56
2022/11/19 00:44:27;;;;;;;6.22;2.03;;;;;;;12.51;97.32;96590.34;10252938;28;20117;-56
2022/11/19 00:49:26;;;;;;;1.65;1.50;;;;;;;12.55;96.29;96604.13;10252546;28;20031;-56
2022/11/19 00:54:25;;;;;;;3.60;1.80;;;;;;;12.59;95.65;96622.22;10252342;28;20105;-56
2022/11/19 00:59:24;;;;;;;2.88;1.83;;;;;;;12.55;95.31;96611.91;10252218;28;20113;-56
2022/11/19 01:04:23;;;;;;;2.25;1.30;;;;;;;12.47;95.05;96606.94;10251802;28;20603;-56
2022/11/19 01:09:23;;;;;;;;;;;;;;;12.49;94.59;96615.56;10251339;28;20073;-56
2022/11/19 01:14:22;;;;;;;2.00;1.30;;;;;;;12.49;94.58;96607.75;10251918;28;19949;-56
2022/11/19 01:19:21;;;;;;;1.45;1.35;;;;;;;12.54;94.19;96618.88;10251814;28;20077;-57
2022/11/19 01:24:20;;;;;;;1.98;1.50;;;;;;;12.45;93.75;96621.72;10250678;28;20113;-56
2022/11/19 01:29:19;;;;;;;2.05;1.30;;;;;;;12.41;93.70;96633.09;10250885;28;20026;-56
2022/11/19 01:34:18;;;;;;;1.70;1.20;;;;;;;12.42;92.68;96635.69;10250922;28;20032;-57
2022/11/19 01:39:18;;;;;;;1.05;1.05;;;;;;;12.50;92.76;96632.88;10250791;28;20040;-56
2022/11/19 01:44:54;;;;;;;1.95;1.20;;;;;;;12.55;92.32;96633.59;10251709;28;20610;-56
2022/11/19 01:49:53;;;;;;;2.03;1.17;;;;;;;12.53;92.16;96630.16;10250458;28;20598;-56
2022/11/19 01:54:54;;;;;;;2.40;1.80;;;;;;;12.49;91.64;96632.00;10250447;28;20185;-56
2022/11/19 01:59:53;;;;;;;2.20;1.30;;;;;;;12.48;91.38;96645.91;10250086;28;20085;-57
2022/11/19 02:04:56;;;;;;;1.60;1.20;;;;;;;12.50;91.27;96648.47;10250181;28;20046;-57
2022/11/19 02:09:56;;;;;;;15.25;7.88;;;;;;;12.47;90.52;96648.56;10249312;28;20084;-57
2022/11/19 02:15:44;;;;;;;5.70;2.75;;;;;;;12.57;90.40;96664.78;10250164;28;20066;-57
2022/11/19 02:21:11;;;;;;;3.67;2.50;;;;;;;12.59;90.27;96656.03;10248322;28;20476;-57
2022/11/19 02:26:47;;;;;;;4.80;2.60;;;;;;;12.56;90.08;96663.94;10257908;28;20058;-57
2022/11/19 02:32:01;;;;;;;4.38;2.40;;;;;;;12.56;90.10;96655.28;10258687;28;20077;-58
2022/11/19 02:37:09;;;;;;;3.78;2.67;;;;;;;12.52;89.76;96672.72;10257714;28;20765;-57
2022/11/19 02:42:30;;;;;;;4.95;2.35;;;;;;;12.48;89.21;96677.13;10257554;28;20077;-57
2022/11/19 02:47:41;;;;;;;2.10;1.65;;;;;;;12.46;89.04;96693.66;10257573;28;20057;-57
2022/11/19 02:52:43;;;;;;;4.65;2.10;;;;;;;12.44;88.41;96693.72;10256589;28;20065;-57
2022/11/19 02:57:49;;;;;;;5.57;1.85;;;;;;;12.38;87.92;96704.28;10256973;28;20058;-57
2022/11/19 03:08:15;;;;;;;5.32;3.40;;;;;;;12.50;86.29;96721.34;10257194;28;20491;-57
2022/11/19 03:18:59;;;;;;;4.88;2.65;;;;;;;12.40;86.47;96756.28;10257011;28;19956;-57
2022/11/19 03:24:04;;;;;;;5.55;4.10;;;;;;;12.39;86.90;96752.84;10255827;28;20078;-57
2022/11/19 03:29:08;;;;;;;5.93;2.67;;;;;;;12.39;87.20;96765.84;10255952;28;20070;-57
2022/11/19 03:34:14;;;;;;;5.70;2.85;;;;;;;12.32;87.67;96763.41;10255079;28;20449;-57
2022/11/19 03:39:16;;;;;;;7.80;4.63;;;;;;;12.17;87.85;96770.66;10255726;28;20073;-57
2022/11/19 03:44:24;;;;;;;7.25;4.53;;;;;;;12.11;87.96;96770.81;10255464;28;20483;-57
2022/11/19 03:49:30;;;;;;;12.30;7.75;;;;;;;11.86;89.30;96781.75;10255069;28;20066;-57
2022/11/19 03:54:29;;;;;;;12.55;7.30;;;;;;;11.85;89.91;96800.84;10255155;28;20074;-57
2022/11/19 03:59:28;;;;;;;6.80;4.00;;;;;;;11.39;92.48;96816.50;10254368;28;20519;-57
2022/11/19 04:04:36;;;;;;;;;;;;;;;11.20;92.92;96831.59;10255087;28;20077;-57
2022/11/19 04:09:36;;;;;;;3.13;2.20;;;;;;;10.91;94.88;96827.75;10254342;28;19949;-57
2022/11/19 04:14:35;;;;;;;4.20;2.55;;;;;;;10.96;95.23;96840.66;10254264;28;20061;-57
2022/11/19 04:19:34;;;;;;;9.02;5.82;;;;;;;11.04;94.87;96836.19;10253684;28;20033;-57
2022/11/19 04:24:32;;;;;;;5.38;3.40;;;;;;;11.18;93.66;96843.75;10253686;28;20056;-57
2022/11/19 04:29:31;;;;;;;6.10;2.72;;;;;;;11.12;93.22;96867.22;10253314;28;20037;-57
2022/11/19 04:34:30;;;;;;;6.80;3.55;;;;;;;11.03;92.91;96892.47;10253132;28;20568;-57
2022/11/19 04:39:29;;;;;;;5.93;2.88;;;;;;;10.91;93.31;96903.03;10253083;28;20464;-57
2022/11/19 04:44:28;;;;;;;3.92;2.80;;;;;;;10.76;94.05;96936.97;10251834;28;20035;-57
2022/11/19 04:49:27;;;;;;;6.32;3.00;;;;;;;10.54;94.55;96933.81;10252756;28;20065;-57
2022/11/19 04:54:26;;;;;;;7.63;3.97;;;;;;;10.49;93.86;96941.66;10252453;28;20118;-57
2022/11/19 04:59:25;;;;;;;8.75;4.50;;;;;;;10.43;93.75;96944.38;10251931;28;20068;-57
2022/11/19 05:04:24;;;;;;;12.07;7.65;;;;;;;10.36;93.80;96960.88;10251780;28;20134;-57
2022/11/19 05:09:23;;;;;;;11.85;7.93;;;;;;;10.26;93.90;96986.06;10250185;28;20444;-57
2022/11/19 05:14:22;;;;;;;18.25;9.95;;;;;;;10.23;95.01;96993.03;10250668;28;20022;-57
2022/11/19 05:19:21;;;;;;;13.00;7.45;;;;;;;10.12;94.84;96993.13;10223743;28;20144;-57
2022/11/19 05:24:20;;;;;;;14.45;7.25;;;;;;;10.12;95.40;97011.28;10249701;28;20037;-57
2022/11/19 05:29:18;;;;;;;15.18;7.85;;;;;;;10.11;95.36;97023.38;10250339;28;20468;-57
2022/11/19 05:34:17;;;;;;;12.73;8.10;;;;;;;10.11;95.72;97015.59;10250272;28;20105;-57
2022/11/19 05:39:16;;;;;;;13.40;8.30;;;;;;;10.08;95.91;97023.44;10248806;28;20033;-57
2022/11/19 05:44:15;;;;;;;27.45;15.25;;;;;;;9.99;97.08;97033.91;10247409;28;20037;-57
2022/11/19 05:49:14;;;;;;;22.85;12.55;;;;;;;10.02;97.58;97056.34;10245547;28;20051;-57
2022/11/19 05:54:13;;;;;;;36.65;20.02;;;;;;;10.01;97.32;97058.06;10245148;28;20400;-57
2022/11/19 05:59:12;;;;;;;36.65;21.20;;;;;;;10.08;97.69;97075.28;10247215;28;20542;-57
2022/11/19 06:04:11;;;;;;;64.40;28.60;;;;;;;10.13;97.40;97073.50;10249388;28;20042;-57
2022/11/19 06:09:11;;;;;;;59.70;20.80;;;;;;;10.28;98.30;97085.44;10248365;28;20090;-57
2022/11/19 06:14:10;;;;;;;43.38;20.27;;;;;;;10.41;97.25;97092.22;10248633;28;20112;-57
2022/11/19 06:19:09;;;;;;;45.40;17.15;;;;;;;10.54;97.04;97100.72;10248364;28;20411;-57
2022/11/19 06:24:08;;;;;;;;;;;;;;;10.70;97.31;97116.09;10249502;28;20078;-57
2022/11/19 06:29:08;;;;;;;31.25;21.27;;;;;;;10.81;96.88;97142.78;10248617;28;19916;-57
2022/11/19 06:34:07;;;;;;;24.58;20.02;;;;;;;10.92;96.29;97148.75;10248986;28;20066;-57
2022/11/19 06:39:06;;;;;;;20.17;14.35;;;;;;;10.95;95.46;97153.03;10248038;28;20062;-57
2022/11/19 06:44:05;;;;;;;19.98;13.57;;;;;;;11.11;95.86;97153.72;10248559;28;20070;-57
2022/11/19 06:49:05;;;;;;;16.48;12.18;;;;;;;11.37;96.25;97159.41;10262750;28;20039;-57
2022/11/19 06:54:04;;;;;;;21.85;16.80;;;;;;;11.68;95.47;97166.78;10247271;28;20508;-57
2022/11/19 06:59:03;;;;;;;18.60;12.55;;;;;;;11.70;93.07;97170.22;10248232;28;20472;-57
2022/11/19 07:04:02;;;;;;;18.63;13.52;;;;;;;11.92;93.96;97185.47;10247477;28;20129;-58
2022/11/19 07:09:01;;;;;;;23.23;16.20;;;;;;;12.20;92.98;97181.53;10253859;28;20082;-58
2022/11/19 07:14:02;;;;;;;23.05;14.95;;;;;;;12.44;91.74;97190.72;10254380;28;20054;-58
2022/11/19 07:19:04;;;;;;;26.67;15.70;;;;;;;12.64;90.90;97187.75;10254571;28;20066;-58
2022/11/19 07:24:06;;;;;;;18.80;15.02;;;;;;;12.82;90.63;97189.16;10254404;28;20483;-58
2022/11/19 07:29:07;;;;;;;25.05;16.45;;;;;;;13.04;89.66;97201.75;10253267;28;20475;-57
2022/11/19 07:34:08;;;;;;;21.63;16.27;;;;;;;13.12;88.18;97187.69;10253433;28;20101;-58
2022/11/19 07:39:08;;;;;;;19.75;15.70;;;;;;;13.18;86.62;97191.91;10251453;28;20501;-57
2022/11/19 07:44:07;;;;;;;17.35;10.20;;;;;;;12.97;85.52;97201.03;10251274;28;20074;-57
2022/11/19 07:49:05;;;;;;;;;;;;;;;12.92;85.23;97205.47;10250170;28;20558;-58
2022/11/19 07:54:05;;;;;;;16.90;13.80;;;;;;;12.75;84.69;97197.97;10250128;28;20388;-57
2022/11/19 07:59:04;;;;;;;15.40;12.07;;;;;;;12.79;85.27;97212.66;10249757;28;20065;-58
2022/11/19 08:04:04;;;;;;;16.95;11.18;;;;;;;12.89;84.80;97200.31;10251607;28;20046;-56
2022/11/19 08:09:04;;;;;;;24.85;12.73;;;;;;;13.06;84.40;97205.19;10250961;28;20117;-57
2022/11/19 08:14:03;;;;;;;11.95;8.93;;;;;;;13.07;82.54;97210.38;10252592;28;20077;-58
2022/11/19 08:19:08;;;;;;;14.05;10.90;;;;;;;13.09;82.70;97226.84;10252223;28;20050;-58
2022/11/19 08:24:08;;;;;;;15.38;9.60;;;;;;;13.12;82.46;97220.72;10252505;28;20464;-58
2022/11/19 08:29:08;;;;;;;22.85;17.88;;;;;;;13.01;83.17;97233.94;10213577;28;20085;-58
2022/11/19 08:34:07;;;;;;;19.98;15.48;;;;;;;13.09;82.48;97225.97;10251837;28;20829;-56
2022/11/19 08:39:06;;;;;;;22.60;19.05;;;;;;;12.99;83.33;97233.09;10251394;28;20034;-56
2022/11/19 08:44:05;;;;;;;;;;;;;;;13.05;83.61;97246.03;10252122;28;20112;-56
2022/11/19 08:49:04;;;;;;;19.73;12.60;;;;;;;13.04;84.28;97233.88;10250914;28;19909;-56
2022/11/19 08:54:04;;;;;;;13.48;11.05;;;;;;;12.93;85.08;97236.69;10251228;28;20080;-58
2022/11/19 08:59:03;;;;;;;11.80;9.23;;;;;;;13.09;85.47;97232.06;10250336;28;20406;-57
2022/11/19 09:04:02;;;;;;;;;;;;;;;13.23;84.24;97236.97;10250918;28;20543;-58
2022/11/19 09:09:02;;;;;;;8.75;5.85;;;;;;;13.53;83.40;97227.66;10250799;28;19910;-56
2022/11/19 09:14:01;;;;;;;9.40;7.07;;;;;;;13.84;80.91;97223.56;10249723;28;20460;-58
2022/11/19 09:19:01;;;;;;;7.28;5.32;;;;;;;13.83;79.68;97227.06;10250180;28;20030;-58
2022/11/19 09:24:00;;;;;;;8.25;4.85;;;;;;;14.01;78.57;97241.44;10249904;28;20084;-58
2022/11/19 09:28:58;;;;;;;;;;;;;;;14.27;77.64;97238.25;10249563;28;20023;-55
2022/11/19 09:33:57;;;;;;;6.85;4.72;;;;;;;14.08;77.70;97235.22;10249640;28;19957;-58
2022/11/19 09:38:57;;;;;;;;;;;;;;;13.74;78.51;97235.97;10249348;28;20030;-57
2022/11/19 09:44:23;;;;;;;6.00;4.30;;;;;;;13.47;78.09;97217.38;10249637;28;19961;-57
2022/11/19 09:49:55;;;;;;;7.47;4.63;;;;;;;13.70;77.81;97223.88;10249082;28;20103;-58
2022/11/19 09:54:56;;;;;;;7.47;4.93;;;;;;;14.07;78.05;97212.59;10228899;28;20117;-58
2022/11/19 09:59:57;;;;;;;5.20;3.90;;;;;;;14.19;73.95;97217.53;10248580;28;20079;-58
2022/11/19 10:04:57;;;;;;;5.22;3.67;;;;;;;14.46;73.37;97199.50;10263740;28;20140;-58
2022/11/19 10:10:15;;;;;;;8.20;3.85;;;;;;;14.46;73.55;97183.81;10248170;28;20140;-57
2022/11/19 10:15:25;;;;;;;6.85;4.50;;;;;;;14.51;73.39;97184.56;10248713;28;20062;-56
2022/11/19 10:20:40;;;;;;;7.50;5.28;;;;;;;14.33;74.47;97181.50;10250850;28;20069;-58
2022/11/19 10:25:46;;;;;;;6.15;4.30;;;;;;;14.25;74.78;97169.56;10251452;28;20078;-58
2022/11/19 10:30:54;;;;;;;8.43;4.78;;;;;;;14.12;75.27;97161.16;10250965;28;20077;-58
2022/11/19 10:35:59;;;;;;;7.77;4.70;;;;;;;14.29;75.41;97165.97;10251199;28;20065;-58
2022/11/19 10:41:23;;;;;;;6.63;4.40;;;;;;;14.27;74.83;97162.56;10255625;28;20069;-58
2022/11/19 10:46:24;;;;;;;7.53;4.82;;;;;;;14.09;75.19;97169.06;10253184;28;20081;-57
2022/11/19 10:51:40;;;;;;;6.97;4.60;;;;;;;14.43;74.73;97165.59;10258409;28;20081;-58
2022/11/19 10:56:41;;;;;;;8.75;5.38;;;;;;;14.36;74.47;97162.31;10258378;28;20076;-57
2022/11/19 11:01:43;;;;;;;6.47;4.10;;;;;;;14.43;73.86;97152.56;10257856;28;20077;-58
2022/11/19 11:07:14;;;;;;;7.30;4.10;;;;;;;14.61;73.35;97160.75;10257986;28;20074;-58
2022/11/19 11:17:37;;;;;;;7.68;4.43;;;;;;;14.26;71.96;97159.06;10258714;28;20053;-58
2022/11/19 11:22:37;;;;;;;6.22;4.53;;;;;;;14.49;72.44;97153.25;10257105;28;20067;-57
2022/11/19 11:27:36;;;;;;;5.40;4.25;;;;;;;14.47;72.84;97142.00;10255008;28;20073;-57
2022/11/19 11:32:35;;;;;;;;;;;;;;;14.81;72.03;97136.75;10254739;28;20040;-58
2022/11/19 11:37:34;;;;;;;6.70;4.28;;;;;;;15.10;71.28;97126.38;10253832;28;20044;-57
2022/11/19 11:42:33;;;;;;;;;;;;;;;15.09;70.23;97128.13;10251374;28;20062;-57
2022/11/19 11:47:38;;;;;;;6.73;4.40;;;;;;;14.89;70.35;97126.09;10249839;28;19968;-58
2022/11/19 11:52:47;;;;;;;6.32;4.18;;;;;;;15.12;70.27;97117.59;10250653;28;20065;-57
2022/11/19 11:57:52;;;;;;;4.90;3.60;;;;;;;15.21;69.14;97117.31;10253585;28;20057;-58
2022/11/19 12:03:06;;;;;;;6.88;4.18;;;;;;;15.39;69.48;97131.59;10252559;28;20373;-56
2022/11/19 12:08:12;;;;;;;9.98;4.45;;;;;;;15.24;69.48;97148.56;10252604;28;20576;-56
2022/11/19 12:13:26;;;;;;;6.10;4.07;;;;;;;15.35;69.49;97144.81;10249197;28;20054;-56
2022/11/19 12:18:43;;;;;;;5.95;4.20;;;;;;;15.44;68.31;97149.78;10249919;28;20084;-56
2022/11/19 12:23:48;;;;;;;6.28;4.55;;;;;;;15.22;68.82;97160.88;10249559;28;20547;-56
2022/11/19 12:28:47;;;;;;;8.52;4.85;;;;;;;15.48;69.46;97153.97;10252988;28;20354;-57
2022/11/19 12:33:46;;;;;;;;;;;;;;;15.54;68.22;97143.34;10252325;28;20034;-57
2022/11/19 12:38:54;;;;;;;5.38;3.75;;;;;;;15.79;68.68;97158.31;10252592;28;19996;-57
2022/11/19 12:43:58;;;;;;;8.95;6.35;;;;;;;15.88;67.58;97150.19;10251527;28;20078;-57
2022/11/19 12:48:59;;;;;;;12.35;9.80;;;;;;;15.55;64.51;97165.13;10251347;28;20092;-57
2022/11/19 12:54:23;;;;;;;8.27;4.70;;;;;;;15.40;64.65;97177.75;10251491;28;20077;-57
2022/11/19 12:59:44;;;;;;;5.75;4.95;;;;;;;15.27;63.86;97188.59;10251094;28;20487;-57
2022/11/19 13:04:53;;;;;;;9.15;7.10;;;;;;;15.01;63.51;97192.81;10250242;28;20097;-57
2022/11/19 13:09:58;;;;;;;;;;;;;;;14.70;63.09;97198.88;10251311;28;20065;-57
2022/11/19 13:15:03;;;;;;;14.50;9.52;;;;;;;14.46;63.93;97215.16;10251193;28;20467;-58
2022/11/19 13:20:11;;;;;;;10.85;7.47;;;;;;;14.32;64.42;97205.91;10250257;28;20081;-58
2022/11/19 13:25:16;;;;;;;9.82;7.65;;;;;;;14.46;64.20;97204.72;10249573;28;20077;-57
2022/11/19 13:30:25;;;;;;;10.68;8.05;;;;;;;14.39;64.20;97220.50;10249038;28;20508;-57
2022/11/19 13:35:31;;;;;;;9.63;6.50;;;;;;;14.26;63.95;97193.00;10249831;28;20506;-58
2022/11/19 13:40:40;;;;;;;10.00;5.22;;;;;;;14.10;63.90;97217.75;10249527;28;20066;-58
2022/11/19 13:45:45;;;;;;;7.70;5.25;;;;;;;14.19;63.69;97233.19;10248998;28;20512;-57
2022/11/19 13:50:47;;;;;;;9.60;4.90;;;;;;;14.15;63.56;97242.00;10248903;28;20077;-57
2022/11/19 13:55:47;;;;;;;8.32;5.78;;;;;;;14.08;63.79;97228.22;10249390;28;20487;-56
2022/11/19 14:01:04;;;;;;;10.43;7.22;;;;;;;13.95;64.13;97235.47;10248132;28;20093;-57
2022/11/19 14:06:12;;;;;;;13.55;10.57;;;;;;;13.85;65.35;97244.41;10248750;28;20524;-58
2022/11/19 14:11:14;;;;;;;11.77;8.27;;;;;;;13.75;65.31;97255.94;10248445;28;20390;-57
2022/11/19 14:27:16;;;;;;;21.23;13.00;;;;;;;13.32;67.77;97260.25;10248384;28;20062;-57
2022/11/19 14:32:17;;;;;;;13.15;10.00;;;;;;;13.24;68.66;97258.69;10248111;28;20092;-57
2022/11/19 14:37:23;;;;;;;26.35;17.85;;;;;;;13.12;68.93;97246.78;10248233;28;20186;-58
2022/11/19 14:42:22;;;;;;;16.05;10.70;;;;;;;13.19;68.78;97244.88;10247847;28;20068;-58
2022/11/19 14:47:21;;;;;;;14.63;9.18;;;;;;;13.08;68.36;97245.97;10247474;28;20034;-56
2022/11/19 14:52:24;;;;;;;39.28;31.73;;;;;;;13.10;68.40;97249.41;10248032;28;20038;-56
2022/11/19 14:57:34;;;;;;;18.75;14.60;;;;;;;13.21;69.15;97248.31;10246880;28;20065;-57
2022/11/19 15:02:38;;;;;;;21.90;19.42;;;;;;;13.28;69.77;97244.69;10247774;28;20092;-57
2022/11/19 15:07:43;;;;;;;9.68;5.97;;;;;;;13.31;70.18;97247.25;10247231;28;20085;-57
2022/11/19 15:12:42;;;;;;;8.50;6.22;;;;;;;13.30;70.35;97235.09;10247581;28;20205;-56
2022/11/19 15:17:42;;;;;;;16.27;11.50;;;;;;;13.26;71.94;97254.31;10247002;28;20030;-57
2022/11/19 15:22:52;;;;;;;8.05;5.57;;;;;;;13.16;71.43;97248.41;10245870;28;20082;-56
2022/11/19 15:28:20;;;;;;;8.85;7.18;;;;;;;13.06;70.55;97273.78;10251462;28;20061;-57
2022/11/19 15:33:38;;;;;;;9.20;5.20;;;;;;;13.03;69.70;97262.56;10246105;28;20496;-56
2022/11/19 15:38:42;;;;;;;8.52;5.82;;;;;;;13.00;69.57;97262.59;10253121;28;20065;-57
2022/11/19 15:43:57;;;;;;;6.55;4.70;;;;;;;13.01;69.61;97259.13;10253922;28;20069;-57
2022/11/19 15:49:14;;;;;;;7.07;4.60;;;;;;;13.00;68.68;97267.81;10253659;28;20070;-57
2022/11/19 15:54:13;;;;;;;16.92;10.13;;;;;;;13.00;68.73;97273.91;10253841;28;20074;-58
2022/11/19 15:59:14;;;;;;;23.70;14.75;;;;;;;12.99;69.14;97273.94;10253243;28;20028;-58
2022/11/19 16:04:15;;;;;;;15.30;9.55;;;;;;;12.94;69.05;97264.44;10253356;28;20618;-58
2022/11/19 16:09:17;;;;;;;18.40;11.98;;;;;;;12.77;69.51;97282.13;10252513;28;20070;-58
2022/11/19 16:19:40;;;;;;;12.55;9.65;;;;;;;12.46;69.62;97281.75;10252764;28;20066;-58
2022/11/19 16:29:56;;;;;;;15.35;11.30;;;;;;;12.13;70.90;97303.91;10252352;28;20078;-56
2022/11/19 16:35:20;;;;;;;12.88;9.50;;;;;;;11.93;71.91;97327.63;10251846;28;20076;-56
2022/11/19 16:40:19;;;;;;;25.23;18.80;;;;;;;11.80;73.01;97339.91;10251225;28;20065;-57
2022/11/19 16:45:24;;;;;;;14.80;9.05;;;;;;;11.78;73.35;97368.53;10251398;28;20076;-57
2022/11/19 16:50:35;;;;;;;50.55;39.65;;;;;;;11.82;73.69;97346.78;10251724;28;20078;-57
2022/11/19 16:55:41;;;;;;;71.00;53.58;;;;;;;11.85;74.45;97371.88;10251605;28;20083;-57
2022/11/19 17:00:46;;;;;;;24.85;19.58;;;;;;;11.85;74.54;97367.56;10250601;28;20090;-57
2022/11/19 17:05:47;;;;;;;12.88;8.65;;;;;;;11.80;74.84;97368.50;10250406;28;20065;-57
2022/11/19 17:10:46;;;;;;;12.40;8.95;;;;;;;11.49;75.84;97373.19;10264799;28;20106;-57
2022/11/19 17:15:47;;;;;;;25.00;16.98;;;;;;;11.41;77.08;97386.28;10250371;28;20596;-58
2022/11/19 17:20:51;;;;;;;38.38;28.52;;;;;;;11.29;77.68;97382.06;10250364;28;20080;-57
2022/11/19 17:25:53;;;;;;;110.47;67.72;;;;;;;11.30;77.95;97347.41;10250204;28;20073;-58
2022/11/19 17:30:54;;;;;;;131.00;84.97;;;;;;;11.33;77.87;97357.75;10250433;28;20078;-57
2022/11/19 17:35:53;;;;;;;146.43;92.10;;;;;;;11.37;77.83;97337.81;10250298;28;20074;-57
2022/11/19 17:41:03;;;;;;;15.32;10.52;;;;;;;11.43;77.74;97338.59;10249614;28;20030;-57
2022/11/19 17:46:02;;;;;;;11.30;8.43;;;;;;;11.38;77.91;97350.75;10249199;28;20088;-57
2022/11/19 17:51:01;;;;;;;13.90;9.90;;;;;;;11.40;78.12;97348.16;10249730;28;20501;-57
2022/11/19 17:56:02;;;;;;;16.33;14.18;;;;;;;11.40;77.88;97317.84;10248765;28;20452;-57
2022/11/19 18:01:01;;;;;;;12.55;10.23;;;;;;;11.34;78.87;97320.53;10248769;28;20536;-57
2022/11/19 18:06:01;;;;;;;10.95;7.90;;;;;;;11.35;79.10;97330.03;10249557;28;20046;-58
2022/11/19 18:11:00;;;;;;;13.23;10.02;;;;;;;11.34;79.47;97330.91;10247676;28;20069;-57
2022/11/19 18:15:59;;;;;;;79.32;40.90;;;;;;;11.32;79.77;97311.88;10249722;28;20065;-57
2022/11/19 18:20:58;;;;;;;164.40;109.32;;;;;;;11.30;79.61;97316.22;10249006;28;20479;-58
2022/11/19 18:25:57;;;;;;;55.15;41.63;;;;;;;11.22;80.75;97303.34;10247770;28;20496;-59
2022/11/19 18:30:56;;;;;;;35.00;25.48;;;;;;;11.13;80.23;97279.22;10220822;28;20051;-57
2022/11/19 18:35:55;;;;;;;41.78;29.25;;;;;;;11.08;80.38;97283.56;10248513;28;20511;-57
2022/11/19 18:40:54;;;;;;;27.30;19.80;;;;;;;10.91;80.85;97266.44;10247184;28;20389;-58
2022/11/19 18:45:53;;;;;;;22.65;18.15;;;;;;;10.79;80.71;97257.00;10248054;28;20034;-59
2022/11/19 18:50:52;;;;;;;19.70;14.95;;;;;;;10.66;81.57;97255.41;10247596;28;20044;-57
2022/11/19 18:55:51;;;;;;;21.05;15.23;;;;;;;10.51;81.88;97222.66;10246781;28;20034;-58
2022/11/19 19:00:50;;;;;;;25.35;19.40;;;;;;;10.35;81.89;97213.31;10249369;28;20508;-58
2022/11/19 19:05:49;;;;;;;41.50;29.45;;;;;;;10.14;82.87;97215.22;10255777;28;20038;-58
2022/11/19 19:10:48;;;;;;;51.83;37.55;;;;;;;9.91;83.82;97209.34;10253508;28;20050;-58
2022/11/19 19:15:47;;;;;;;45.08;35.00;;;;;;;9.78;84.83;97211.16;10254949;28;20018;-56
2022/11/19 19:20:46;;;;;;;51.58;40.58;;;;;;;9.61;85.45;97202.66;10253587;28;20447;-58
2022/11/19 19:25:45;;;;;;;45.00;37.38;;;;;;;9.57;85.49;97201.78;10254010;28;20098;-57
2022/11/19 19:30:44;;;;;;;45.80;39.10;;;;;;;9.51;86.07;97199.22;10254062;28;20038;-58
2022/11/19 19:35:43;;;;;;;64.88;44.92;;;;;;;9.39;87.27;97192.38;10254539;28;20504;-57
2022/11/19 19:40:42;;;;;;;58.72;42.75;;;;;;;9.23;87.65;97189.00;10253357;28;20065;-58
2022/11/19 19:45:41;;;;;;;44.15;33.63;;;;;;;9.19;88.33;97187.28;10253879;28;20385;-57
2022/11/19 19:50:48;;;;;;;39.50;31.88;;;;;;;9.16;88.20;97179.56;10250208;28;20069;-57
2022/11/19 19:55:46;;;;;;;43.90;31.92;;;;;;;9.06;88.50;97185.63;10252715;28;20508;-58
2022/11/19 20:00:45;;;;;;;108.50;67.80;;;;;;;8.97;89.18;97189.09;10252807;28;20039;-58
2022/11/19 20:05:48;;;;;;;44.08;31.83;;;;;;;8.88;89.47;97184.84;10253734;28;20046;-57
2022/11/19 20:10:47;;;;;;;51.15;35.40;;;;;;;8.81;89.88;97172.78;10252382;28;20073;-58
2022/11/19 20:15:46;;;;;;;58.85;38.35;;;;;;;8.77;90.41;97160.72;10252821;28;20030;-58
2022/11/19 20:20:45;;;;;;;58.47;41.20;;;;;;;8.70;90.44;97146.94;10250134;28;20069;-57
2022/11/19 20:25:44;;;;;;;48.40;33.95;;;;;;;8.68;90.73;97151.25;10266526;28;20038;-58
2022/11/19 20:30:43;;;;;;;54.05;36.38;;;;;;;8.65;91.51;97155.59;10251907;28;20034;-57
2022/11/19 20:35:51;;;;;;;43.63;31.13;;;;;;;8.57;91.37;97146.97;10251996;28;21390;-57
2022/11/19 20:41:02;;;;;;;34.50;24.58;;;;;;;8.49;91.45;97126.31;10252095;28;20069;-58
2022/11/19 20:46:27;;;;;;;34.88;22.80;;;;;;;8.45;91.74;97122.88;10251159;28;20065;-57
2022/11/19 20:51:26;;;;;;;29.35;21.33;;;;;;;8.41;92.08;97109.97;10245798;28;20070;-57
2022/11/19 20:56:25;;;;;;;34.63;21.30;;;;;;;8.36;92.59;97089.28;10251346;28;20029;-57
2022/11/19 21:01:24;;;;;;;34.95;23.98;;;;;;;8.34;92.34;97103.97;10250965;28;20737;-58
2022/11/19 21:06:23;;;;;;;65.88;41.00;;;;;;;8.29;93.12;97100.50;10251061;28;20073;-58
2022/11/19 21:11:23;;;;;;;67.07;45.83;;;;;;;8.29;93.09;97113.44;10250500;28;20076;-58
2022/11/19 21:16:24;;;;;;;56.20;40.55;;;;;;;8.19;93.63;97083.31;10251384;28;20069;-58
2022/11/19 21:21:24;;;;;;;57.50;41.97;;;;;;;8.17;93.42;97092.78;10249557;28;20078;-58
2022/11/19 21:26:26;;;;;;;58.47;39.47;;;;;;;8.03;93.97;97095.41;10234347;28;20078;-58
2022/11/19 21:31:44;;;;;;;48.08;33.10;;;;;;;7.87;94.62;97107.47;10211277;28;20129;-57
2022/11/19 21:36:44;;;;;;;48.00;32.95;;;;;;;7.82;94.64;97099.72;10211847;28;20096;-57
2022/11/19 21:41:43;;;;;;;45.95;31.55;;;;;;;7.68;95.04;97103.19;10210669;28;20076;-57
2022/11/19 21:46:42;;;;;;;102.15;65.28;;;;;;;7.64;94.74;97115.25;10210834;28;20074;-57
2022/11/19 21:51:42;;;;;;;43.83;32.72;;;;;;;7.49;96.09;97095.44;10213304;28;20121;-57
2022/11/19 21:56:41;;;;;;;69.63;41.38;;;;;;;7.55;95.54;97087.69;10211060;28;20066;-57
2022/11/19 22:01:40;;;;;;;53.60;35.10;;;;;;;7.52;95.79;97092.88;10219887;28;20125;-57
2022/11/19 22:06:38;;;;;;;83.22;46.58;;;;;;;7.56;95.56;97086.81;10250213;28;20026;-57
2022/11/19 22:11:37;;;;;;;106.07;69.97;;;;;;;7.54;95.85;97080.78;10248507;28;20030;-57
2022/11/19 22:16:38;;;;;;;75.63;51.40;;;;;;;7.53;95.20;97070.47;10250008;28;20560;-58
2022/11/19 22:21:37;;;;;;;59.17;42.95;;;;;;;7.53;95.72;97071.34;10250346;28;20073;-57
2022/11/19 22:26:36;;;;;;;49.28;33.80;;;;;;;7.53;95.40;97068.75;10249640;28;20398;-58
2022/11/19 22:31:35;;;;;;;53.63;38.08;;;;;;;7.45;95.89;97049.81;10249846;28;20109;-58
2022/11/19 22:36:34;;;;;;;48.30;33.25;;;;;;;7.37;96.71;97065.28;10254606;28;20057;-57
2022/11/19 22:41:34;;;;;;;49.05;33.00;;;;;;;7.40;96.46;97061.88;10257696;28;20515;-58
2022/11/19 22:46:33;;;;;;;;;;;;;;;7.37;96.32;97042.03;10257673;28;20500;-57
2022/11/19 22:51:31;;;;;;;58.97;41.33;;;;;;;7.27;96.47;97031.72;10257787;28;20364;-58
2022/11/19 22:56:30;;;;;;;55.20;38.92;;;;;;;7.18;97.22;97036.00;10256996;28;20023;-58
2022/11/19 23:01:31;;;;;;;63.88;42.65;;;;;;;7.16;97.05;97024.81;10256676;28;20116;-59
2022/11/19 23:06:31;;;;;;;60.85;40.58;;;;;;;7.19;97.05;97040.34;10256530;28;20140;-59
2022/11/19 23:16:48;;;;;;;63.45;43.70;;;;;;;7.07;97.69;97019.66;10254134;28;20066;-59
2022/11/19 23:21:47;;;;;;;57.08;40.20;;;;;;;6.93;98.12;97031.69;10253727;28;20050;-58
2022/11/19 23:26:46;;;;;;;54.25;34.42;;;;;;;6.92;98.32;97025.66;10254578;28;20077;-58
2022/11/19 23:31:45;;;;;;;54.28;34.53;;;;;;;6.91;97.88;97038.56;10255531;28;20044;-59
2022/11/19 23:36:43;;;;;;;47.95;31.25;;;;;;;6.81;98.16;96980.94;10255329;28;20109;-58
2022/11/19 23:41:43;;;;;;;47.60;30.42;;;;;;;6.97;97.10;97008.47;10255048;28;20046;-58
2022/11/19 23:46:42;;;;;;;52.15;40.38;;;;;;;6.98;97.69;97006.75;10254070;28;20070;-58
2022/11/19 23:51:41;;;;;;;44.00;29.45;;;;;;;6.98;97.82;97002.47;10255431;28;20499;-58
2022/11/19 23:56:40;;;;;;;47.22;31.60;;;;;;;6.90;97.43;96987.84;10255026;28;20113;-58
